createdAt,value
2023-02-15T00:00:18.684Z,70.93
2023-02-15T00:02:46.902Z,83.77
2023-02-15T00:05:15.184Z,79.37
2023-02-15T00:07:43.412Z,75.03
2023-02-15T00:10:13.237Z,78.90
2023-02-15T00:12:41.474Z,78.83
2023-02-15T00:15:12.418Z,73.13
2023-02-15T00:17:40.604Z,76.43
2023-02-15T00:20:09.749Z,72.60
2023-02-15T00:22:38.017Z,67.93
2023-02-15T00:25:06.942Z,73.63
2023-02-15T00:27:35.762Z,81.23
2023-02-15T00:30:05.113Z,70.13
2023-02-15T00:32:34.866Z,76.87
2023-02-15T00:35:04.081Z,78.67
2023-02-15T00:37:32.449Z,77.27
2023-02-15T00:40:00.664Z,76.37
2023-02-15T00:42:29.037Z,72.03
2023-02-15T00:44:57.252Z,64.37
2023-02-15T00:47:26.487Z,73.33
2023-02-15T00:49:56.117Z,81.90
2023-02-15T00:52:24.393Z,72.97
2023-02-15T00:54:52.567Z,79.90
2023-02-15T00:57:20.783Z,72.63
2023-02-15T00:59:49.479Z,74.50
2023-02-15T01:02:17.698Z,80.23
2023-02-15T01:04:48.588Z,79.70
2023-02-15T01:07:19.422Z,88.53
2023-02-15T01:09:47.676Z,81.53
2023-02-15T01:12:16.184Z,73.90
2023-02-15T01:14:44.445Z,74.30
2023-02-15T01:17:12.659Z,73.57
2023-02-15T01:19:40.954Z,72.07
2023-02-15T01:22:09.270Z,71.80
2023-02-15T01:24:39.183Z,73.90
2023-02-15T01:27:07.382Z,74.80
2023-02-15T01:29:35.606Z,74.70
2023-02-15T01:32:04.196Z,75.77
2023-02-15T01:34:32.779Z,77.50
2023-02-15T01:37:01.105Z,81.90
2023-02-15T01:39:29.361Z,76.17
2023-02-15T01:41:59.746Z,71.83
2023-02-15T01:44:50.441Z,82.17
2023-02-15T01:47:22.420Z,77.27
2023-02-15T01:49:54.313Z,77.07
2023-02-15T01:52:22.728Z,75.63
2023-02-15T01:54:52.538Z,78.93
2023-02-15T01:57:26.140Z,70.97
2023-02-15T02:00:00.372Z,72.53
2023-02-15T02:02:29.876Z,69.40
2023-02-15T02:05:04.045Z,72.23
2023-02-15T02:07:36.943Z,78.93
2023-02-15T02:10:06.683Z,76.17
2023-02-15T02:12:38.045Z,68.77
2023-02-15T02:15:07.572Z,75.63
2023-02-15T02:17:47.693Z,77.87
2023-02-15T02:20:30.972Z,75.03
2023-02-15T02:23:18.145Z,76.50
2023-02-15T02:26:07.125Z,74.27
2023-02-15T02:29:01.272Z,72.93
2023-02-15T02:31:45.624Z,72.03
2023-02-15T02:34:19.305Z,66.57
2023-02-15T02:36:54.756Z,70.57
2023-02-15T02:39:33.454Z,76.07
2023-02-15T02:42:11.781Z,69.53
2023-02-15T02:44:45.400Z,72.40
2023-02-15T02:47:18.503Z,71.37
2023-02-15T02:49:48.109Z,66.07
2023-02-15T02:52:49.962Z,71.90
2023-02-15T02:55:22.879Z,82.47
2023-02-15T02:57:56.147Z,80.97
2023-02-15T03:00:26.674Z,69.23
2023-02-15T03:03:06.095Z,66.43
2023-02-15T03:05:40.231Z,65.77
2023-02-15T03:08:10.815Z,63.07
2023-02-15T03:10:41.297Z,66.80
2023-02-15T03:13:10.811Z,77.30
2023-02-15T03:15:59.125Z,67.47
2023-02-15T03:18:32.977Z,60.70
2023-02-15T03:21:04.856Z,67.23
2023-02-15T03:23:35.031Z,70.60
2023-02-15T03:26:07.212Z,69.53
2023-02-15T03:28:42.888Z,72.20
2023-02-15T03:31:14.157Z,73.53
2023-02-15T03:33:47.706Z,76.43
2023-02-15T03:36:24.343Z,83.17
2023-02-15T03:39:00.815Z,74.33
2023-02-15T03:41:34.249Z,72.03
2023-02-15T03:44:08.794Z,75.60
2023-02-15T03:46:44.634Z,73.03
2023-02-15T03:49:17.614Z,69.43
2023-02-15T03:51:50.057Z,73.47
2023-02-15T03:54:37.285Z,67.17
2023-02-15T03:57:23.810Z,64.07
2023-02-15T04:00:09.214Z,70.23
2023-02-15T04:02:48.848Z,66.50
2023-02-15T04:05:17.308Z,65.20
2023-02-15T04:07:46.976Z,67.67
2023-02-15T04:10:33.009Z,69.90
2023-02-15T04:13:01.240Z,66.07
2023-02-15T04:15:47.072Z,68.13
2023-02-15T04:18:16.598Z,79.23
2023-02-15T04:21:03.823Z,67.80
2023-02-15T04:23:50.970Z,68.80
2023-02-15T04:26:19.433Z,73.20
2023-02-15T04:28:47.657Z,69.20
2023-02-15T04:31:15.996Z,68.13
2023-02-15T04:33:44.780Z,72.77
2023-02-15T04:36:13.072Z,68.87
2023-02-15T04:38:42.675Z,78.13
2023-02-15T04:41:12.392Z,72.27
2023-02-15T04:43:40.928Z,77.07
2023-02-15T04:46:09.208Z,75.30
2023-02-15T04:48:37.822Z,81.63
2023-02-15T04:51:08.488Z,74.17
2023-02-15T04:53:36.730Z,75.73
2023-02-15T04:56:06.570Z,77.27
2023-02-15T04:58:36.072Z,84.73
2023-02-15T05:01:04.673Z,81.97
2023-02-15T05:03:32.935Z,72.50
2023-02-15T05:06:01.389Z,75.43
2023-02-15T05:08:29.800Z,74.23
2023-02-15T05:10:58.322Z,78.93
2023-02-15T05:13:27.999Z,77.43
2023-02-15T05:15:56.387Z,73.63
2023-02-15T05:18:24.608Z,83.80
2023-02-15T05:20:53.218Z,79.03
2023-02-15T05:23:21.525Z,70.93
2023-02-15T05:26:13.588Z,74.80
2023-02-15T05:28:43.201Z,68.50
2023-02-15T05:31:14.503Z,71.70
2023-02-15T05:33:43.497Z,56.97
2023-02-15T05:36:11.990Z,72.30
2023-02-15T05:38:40.955Z,70.50
2023-02-15T05:41:10.589Z,70.93
2023-02-15T05:43:39.953Z,66.40
2023-02-15T05:46:10.325Z,74.00
2023-02-15T05:48:39.090Z,71.43
2023-02-15T05:51:09.949Z,66.27
2023-02-15T05:53:40.108Z,74.37
2023-02-15T05:56:09.865Z,74.77
2023-02-15T05:58:42.261Z,73.60
2023-02-15T06:01:15.652Z,72.23
2023-02-15T06:03:43.976Z,70.10
2023-02-15T06:06:12.604Z,70.57
2023-02-15T06:08:40.820Z,78.57
2023-02-15T06:11:09.488Z,80.33
2023-02-15T06:13:38.982Z,79.00
2023-02-15T06:16:08.000Z,88.33
2023-02-15T06:18:37.684Z,86.13
2023-02-15T06:21:05.931Z,90.23
2023-02-15T06:23:34.163Z,87.20
2023-02-15T06:26:02.672Z,82.77
2023-02-15T06:28:31.049Z,82.57
2023-02-15T06:30:59.407Z,83.47
2023-02-15T06:33:27.705Z,83.40
2023-02-15T06:35:57.502Z,87.83
2023-02-15T06:38:25.772Z,72.70
2023-02-15T06:40:54.038Z,71.60
2023-02-15T06:43:22.338Z,79.43
2023-02-15T06:45:50.571Z,82.00
2023-02-15T06:48:18.811Z,79.10
2023-02-15T06:50:47.111Z,78.57
2023-02-15T06:53:16.781Z,82.03
2023-02-15T06:55:45.101Z,83.13
2023-02-15T06:58:13.357Z,73.80
2023-02-15T07:00:41.601Z,75.27
2023-02-15T07:03:10.215Z,76.27
2023-02-15T07:05:38.821Z,73.83
2023-02-15T07:08:07.065Z,71.63
2023-02-15T07:10:36.718Z,77.07
2023-02-15T07:13:04.082Z,83.83
2023-02-15T07:15:32.304Z,74.83
2023-02-15T07:18:00.664Z,71.77
2023-02-15T07:20:29.666Z,65.00
2023-02-15T07:22:57.906Z,71.63
2023-02-15T07:25:26.130Z,69.83
2023-02-15T07:27:59.534Z,76.40
2023-02-15T07:30:27.948Z,80.13
2023-02-15T07:33:15.150Z,65.87
2023-02-15T07:35:49.741Z,75.87
2023-02-15T07:38:18.209Z,69.20
2023-02-15T07:40:47.204Z,67.37
2023-02-15T07:43:16.827Z,79.17
2023-02-15T07:45:45.668Z,77.20
2023-02-15T07:48:13.877Z,82.23
2023-02-15T07:50:42.288Z,78.77
2023-02-15T07:53:10.595Z,80.57
2023-02-15T07:55:39.098Z,76.13
2023-02-15T07:58:07.345Z,76.33
2023-02-15T08:00:57.270Z,72.67
2023-02-15T08:03:27.744Z,80.83
2023-02-15T08:05:59.527Z,81.13
2023-02-15T08:08:34.368Z,69.13
2023-02-15T08:11:21.513Z,72.33
2023-02-15T08:13:57.561Z,73.33
2023-02-15T08:16:28.860Z,64.97
2023-02-15T08:18:58.377Z,68.67
2023-02-15T08:21:29.055Z,66.00
2023-02-15T08:23:58.014Z,69.40
2023-02-15T08:26:27.650Z,62.37
2023-02-15T08:28:56.249Z,63.03
2023-02-15T08:31:24.847Z,60.90
2023-02-15T08:33:56.372Z,61.90
2023-02-15T08:36:26.481Z,62.53
2023-02-15T08:38:55.151Z,61.83
2023-02-15T08:41:25.611Z,62.60
2023-02-15T08:43:55.744Z,56.97
2023-02-15T08:46:24.853Z,68.70
2023-02-15T08:48:54.932Z,56.43
2023-02-15T08:51:25.000Z,62.00
2023-02-15T08:53:55.180Z,60.87
2023-02-15T08:56:26.888Z,56.37
2023-02-15T08:58:55.677Z,59.67
2023-02-15T09:01:31.010Z,59.47
2023-02-15T09:04:02.000Z,57.90
2023-02-15T09:06:30.982Z,60.47
2023-02-15T09:08:59.461Z,59.10
2023-02-15T09:11:29.676Z,61.57
2023-02-15T09:14:00.136Z,55.30
2023-02-15T09:16:30.174Z,53.90
2023-02-15T09:19:02.118Z,60.93
2023-02-15T09:21:31.196Z,58.00
2023-02-15T09:24:01.692Z,53.90
2023-02-15T09:26:31.798Z,54.07
2023-02-15T09:29:02.466Z,55.23
2023-02-15T09:31:32.256Z,55.57
2023-02-15T09:34:03.167Z,52.40
2023-02-15T09:36:34.029Z,50.80
2023-02-15T09:39:08.758Z,50.60
2023-02-15T09:42:05.228Z,52.30
2023-02-15T09:44:52.413Z,47.60
2023-02-15T09:47:47.178Z,45.63
2023-02-15T09:50:22.864Z,49.37
2023-02-15T09:53:11.672Z,44.80
2023-02-15T09:55:53.395Z,51.17
2023-02-15T09:58:32.022Z,48.67
2023-02-15T10:01:06.258Z,43.43
2023-02-15T10:03:46.318Z,49.20
2023-02-15T10:06:34.804Z,48.40
2023-02-15T10:09:28.340Z,47.90
2023-02-15T10:12:12.082Z,48.90
2023-02-15T10:14:52.672Z,49.50
2023-02-15T10:17:32.872Z,45.87
2023-02-15T10:20:19.060Z,44.47
2023-02-15T10:23:04.530Z,50.97
2023-02-15T10:25:43.160Z,53.73
2023-02-15T10:28:22.176Z,57.67
2023-02-15T10:30:52.660Z,47.67
2023-02-15T10:33:36.125Z,48.27
2023-02-15T10:36:19.139Z,49.10
2023-02-15T10:38:54.410Z,49.73
2023-02-15T10:41:37.873Z,49.60
2023-02-15T10:44:21.741Z,46.27
2023-02-15T10:47:19.344Z,50.83
2023-02-15T10:50:12.129Z,44.33
2023-02-15T10:52:58.186Z,41.57
2023-02-15T10:55:41.915Z,43.93
2023-02-15T10:58:19.157Z,46.07
2023-02-15T11:00:52.024Z,43.87
2023-02-15T11:03:46.135Z,44.03
2023-02-15T11:06:17.927Z,44.13
2023-02-15T11:08:49.637Z,49.17
2023-02-15T11:11:28.275Z,41.83
2023-02-15T11:14:01.554Z,43.47
2023-02-15T11:16:34.347Z,43.47
2023-02-15T11:19:08.958Z,41.03
2023-02-15T11:21:41.569Z,39.83
2023-02-15T11:24:15.142Z,38.10
2023-02-15T11:26:48.280Z,40.63
2023-02-15T11:29:26.401Z,42.07
2023-02-15T11:31:57.586Z,40.63
2023-02-15T11:34:38.528Z,42.00
2023-02-15T11:37:10.914Z,40.77
2023-02-15T11:39:39.737Z,42.47
2023-02-15T11:42:15.479Z,42.10
2023-02-15T11:44:55.096Z,42.40
2023-02-15T11:47:23.376Z,34.97
2023-02-15T11:49:51.623Z,37.30
2023-02-15T11:52:20.721Z,39.10
2023-02-15T11:54:52.166Z,39.03
2023-02-15T11:57:28.575Z,40.03
2023-02-15T12:00:02.420Z,37.57
2023-02-15T12:02:39.484Z,38.07
2023-02-15T12:05:15.185Z,41.37
2023-02-15T12:07:54.132Z,39.50
2023-02-15T12:10:26.292Z,40.23
2023-02-15T12:13:12.228Z,40.43
2023-02-15T12:15:45.647Z,40.63
2023-02-15T12:18:23.348Z,37.07
2023-02-15T12:20:52.190Z,39.77
2023-02-15T12:23:21.798Z,39.53
2023-02-15T12:25:55.669Z,37.70
2023-02-15T12:28:29.057Z,38.80
2023-02-15T12:31:00.699Z,40.00
2023-02-15T12:33:32.385Z,38.93
2023-02-15T12:36:06.504Z,40.37
2023-02-15T12:38:35.468Z,36.37
2023-02-15T12:41:22.064Z,38.57
2023-02-15T12:44:06.211Z,44.30
2023-02-15T12:46:38.280Z,38.43
2023-02-15T12:49:20.470Z,36.27
2023-02-15T12:51:51.441Z,43.53
2023-02-15T12:54:33.211Z,39.40
2023-02-15T12:57:02.362Z,38.67
2023-02-15T12:59:50.648Z,37.00
2023-02-15T13:02:27.271Z,41.83
2023-02-15T13:04:57.550Z,42.40
2023-02-15T13:07:31.890Z,39.80
2023-02-15T13:10:06.939Z,44.47
2023-02-15T13:12:35.309Z,40.57
2023-02-15T13:15:06.448Z,42.03
2023-02-15T13:17:35.743Z,40.90
2023-02-15T13:20:10.773Z,42.40
2023-02-15T13:22:49.099Z,37.70
2023-02-15T13:25:22.062Z,42.90
2023-02-15T13:27:54.606Z,40.27
2023-02-15T13:30:30.047Z,40.23
2023-02-15T13:33:04.376Z,39.63
2023-02-15T13:35:43.232Z,41.03
2023-02-15T13:38:32.805Z,42.43
2023-02-15T13:41:05.249Z,39.87
2023-02-15T13:43:47.839Z,41.50
2023-02-15T13:46:26.095Z,39.53
2023-02-15T13:49:04.489Z,42.33
2023-02-15T13:51:42.633Z,42.80
2023-02-15T13:54:38.691Z,44.67
2023-02-15T13:57:35.290Z,39.80
2023-02-15T14:00:14.809Z,36.40
2023-02-15T14:03:14.479Z,41.17
2023-02-15T14:05:59.593Z,41.00
2023-02-15T14:08:42.227Z,44.00
2023-02-15T14:11:18.160Z,40.67
2023-02-15T14:14:17.582Z,40.30
2023-02-15T14:17:06.763Z,40.83
2023-02-15T14:19:50.921Z,45.50
2023-02-15T14:22:28.038Z,42.20
2023-02-15T14:25:14.502Z,40.03
2023-02-15T14:27:55.210Z,41.53
2023-02-15T14:30:27.631Z,42.80
2023-02-15T14:32:59.292Z,42.70
2023-02-15T14:35:31.327Z,35.80
2023-02-15T14:38:08.720Z,41.63
2023-02-15T14:41:03.619Z,43.10
2023-02-15T14:43:45.834Z,36.40
2023-02-15T14:46:23.374Z,42.37
2023-02-15T14:48:54.195Z,41.83
2023-02-15T14:51:57.658Z,42.23
2023-02-15T14:55:01.605Z,41.67
2023-02-15T14:57:35.754Z,41.13
2023-02-15T15:00:40.173Z,43.33
2023-02-15T15:03:25.315Z,41.40
2023-02-15T15:05:55.863Z,40.27
2023-02-15T15:08:30.215Z,43.60
2023-02-15T15:11:43.429Z,37.27
2023-02-15T15:14:33.684Z,42.73
2023-02-15T15:17:04.806Z,40.70
2023-02-15T15:20:14.445Z,35.83
2023-02-15T15:22:46.179Z,39.93
2023-02-15T15:25:45.790Z,41.37
2023-02-15T15:28:47.076Z,37.07
2023-02-15T15:31:22.110Z,32.93
2023-02-15T15:34:22.953Z,34.50
2023-02-15T15:37:37.438Z,33.27
2023-02-15T15:40:42.674Z,36.40
2023-02-15T15:43:42.747Z,37.97
2023-02-15T15:46:44.515Z,37.83
2023-02-15T15:49:17.224Z,33.20
2023-02-15T15:52:16.129Z,38.10
2023-02-15T15:54:45.439Z,38.50
2023-02-15T15:57:24.174Z,31.87
2023-02-15T15:59:52.788Z,34.53
2023-02-15T16:02:21.052Z,35.27
2023-02-15T16:04:49.688Z,42.67
2023-02-15T16:07:28.765Z,32.07
2023-02-15T16:09:59.256Z,36.17
2023-02-15T16:12:29.424Z,43.67
2023-02-15T16:15:04.528Z,40.27
2023-02-15T16:17:34.616Z,43.37
2023-02-15T16:20:07.180Z,43.03
2023-02-15T16:22:41.133Z,44.73
2023-02-15T16:25:43.083Z,44.87
2023-02-15T16:28:14.384Z,45.77
2023-02-15T16:30:45.406Z,41.80
2023-02-15T16:33:15.857Z,49.23
2023-02-15T16:35:56.638Z,43.67
2023-02-15T16:38:46.567Z,42.63
2023-02-15T16:41:17.321Z,43.07
2023-02-15T16:43:50.941Z,47.33
2023-02-15T16:46:28.535Z,44.37
2023-02-15T16:48:59.776Z,43.47
2023-02-15T16:51:32.193Z,43.90
2023-02-15T16:54:09.132Z,47.57
2023-02-15T16:56:38.290Z,42.20
2023-02-15T16:59:06.593Z,46.80
2023-02-15T17:01:35.542Z,41.97
2023-02-15T17:04:14.187Z,46.57
2023-02-15T17:06:42.829Z,44.50
2023-02-15T17:09:20.569Z,45.27
2023-02-15T17:11:48.896Z,47.47
2023-02-15T17:14:23.943Z,44.80
2023-02-15T17:16:54.681Z,44.60
2023-02-15T17:19:27.171Z,46.53
2023-02-15T17:21:57.397Z,46.37
2023-02-15T17:24:37.042Z,48.87
2023-02-15T17:27:12.646Z,52.13
2023-02-15T17:29:48.092Z,47.53
2023-02-15T17:32:20.099Z,49.57
2023-02-15T17:35:01.097Z,47.67
2023-02-15T17:37:45.225Z,46.27
2023-02-15T17:40:22.242Z,46.23
2023-02-15T17:42:52.510Z,47.73
2023-02-15T17:45:23.175Z,48.17
2023-02-15T17:47:52.212Z,50.33
2023-02-15T17:50:23.465Z,56.47
2023-02-15T17:52:52.964Z,48.17
2023-02-15T17:55:39.057Z,45.77
2023-02-15T17:58:09.879Z,50.17
2023-02-15T18:00:59.623Z,51.07
2023-02-15T18:03:53.610Z,52.30
2023-02-15T18:06:39.364Z,50.23
2023-02-15T18:09:25.422Z,49.53
2023-02-15T18:11:55.440Z,56.47
2023-02-15T18:14:23.795Z,49.90
2023-02-15T18:16:52.486Z,48.00
2023-02-15T18:19:23.227Z,51.23
2023-02-15T18:21:52.786Z,53.37
2023-02-15T18:24:24.253Z,53.13
2023-02-15T18:26:54.947Z,58.90
2023-02-15T18:29:23.319Z,58.23
2023-02-15T18:31:55.989Z,58.20
2023-02-15T18:34:28.542Z,54.50
2023-02-15T18:36:58.410Z,54.47
2023-02-15T18:39:31.293Z,51.23
2023-02-15T18:42:01.641Z,54.77
2023-02-15T18:44:33.069Z,57.00
2023-02-15T18:47:01.416Z,59.17
2023-02-15T18:49:29.787Z,60.40
2023-02-15T18:51:58.055Z,56.33
2023-02-15T18:54:28.924Z,57.00
2023-02-15T18:57:00.109Z,57.57
2023-02-15T18:59:31.202Z,56.90
2023-02-15T19:02:13.722Z,55.27
2023-02-15T19:04:42.918Z,56.90
2023-02-15T19:07:23.142Z,56.70
2023-02-15T19:09:59.932Z,61.80
2023-02-15T19:12:29.644Z,56.23
2023-02-15T19:15:22.221Z,54.37
2023-02-15T19:18:17.020Z,56.50
2023-02-15T19:20:46.993Z,55.37
2023-02-15T19:23:20.091Z,52.07
2023-02-15T19:25:49.494Z,55.07
2023-02-15T19:28:20.111Z,53.37
2023-02-15T19:30:49.825Z,54.37
2023-02-15T19:33:21.290Z,53.90
2023-02-15T19:35:54.209Z,57.43
2023-02-15T19:38:25.408Z,60.07
2023-02-15T19:41:01.068Z,56.70
2023-02-15T19:43:30.196Z,54.43
2023-02-15T19:45:59.973Z,58.30
2023-02-15T19:48:28.308Z,57.20
2023-02-15T19:50:56.979Z,59.33
2023-02-15T19:53:27.579Z,56.23
2023-02-15T19:56:21.219Z,58.23
2023-02-15T19:58:52.774Z,55.23
2023-02-15T20:01:23.296Z,54.70
2023-02-15T20:03:52.059Z,57.13
2023-02-15T20:06:33.913Z,65.80
2023-02-15T20:09:02.200Z,57.60
2023-02-15T20:11:30.622Z,56.90
2023-02-15T20:13:58.903Z,61.93
2023-02-15T20:16:31.461Z,55.93
2023-02-15T20:18:59.934Z,57.97
2023-02-15T20:21:28.265Z,55.07
2023-02-15T20:23:56.611Z,59.67
2023-02-15T20:26:29.759Z,55.63
2023-02-15T20:29:06.967Z,56.17
2023-02-15T20:31:36.727Z,60.97
2023-02-15T20:34:15.628Z,60.57
2023-02-15T20:36:44.029Z,63.67
2023-02-15T20:39:16.569Z,63.60
2023-02-15T20:41:48.261Z,67.90
2023-02-15T20:44:29.898Z,61.97
2023-02-15T20:47:01.678Z,57.60
2023-02-15T20:49:57.542Z,65.50
2023-02-15T20:52:25.810Z,63.13
2023-02-15T20:54:54.128Z,57.93
2023-02-15T20:57:29.689Z,62.73
2023-02-15T21:00:00.329Z,64.67
2023-02-15T21:02:30.104Z,61.63
2023-02-15T21:05:30.884Z,64.47
2023-02-15T21:07:59.895Z,66.90
2023-02-15T21:10:30.471Z,63.30
2023-02-15T21:13:01.550Z,65.23
2023-02-15T21:15:32.780Z,65.40
2023-02-15T21:18:04.280Z,62.77
2023-02-15T21:20:34.463Z,64.87
2023-02-15T21:23:05.919Z,60.93
2023-02-15T21:25:37.216Z,67.97
2023-02-15T21:28:08.529Z,67.63
2023-02-15T21:30:36.886Z,72.27
2023-02-15T21:33:06.711Z,62.60
2023-02-15T21:35:38.399Z,62.47
2023-02-15T21:38:07.947Z,68.50
2023-02-15T21:40:36.251Z,59.20
2023-02-15T21:43:32.271Z,65.20
2023-02-15T21:46:24.153Z,67.13
2023-02-15T21:48:53.744Z,65.57
2023-02-15T21:51:42.384Z,66.90
2023-02-15T21:54:28.592Z,60.77
2023-02-15T21:56:57.140Z,59.83
2023-02-15T21:59:28.564Z,62.20
2023-02-15T22:01:57.047Z,67.90
2023-02-15T22:04:29.278Z,62.87
2023-02-15T22:06:58.084Z,58.83
2023-02-15T22:09:28.023Z,63.33
2023-02-15T22:11:56.636Z,66.63
2023-02-15T22:14:37.967Z,65.90
2023-02-15T22:17:15.956Z,63.13
2023-02-15T22:19:47.239Z,64.73
2023-02-15T22:22:16.231Z,62.20
2023-02-15T22:24:45.742Z,61.47
2023-02-15T22:27:19.791Z,63.23
2023-02-15T22:29:48.702Z,67.77
2023-02-15T22:32:19.224Z,65.20
2023-02-15T22:34:48.960Z,67.93
2023-02-15T22:37:17.323Z,67.13
2023-02-15T22:39:45.556Z,62.90
2023-02-15T22:42:24.563Z,67.40
2023-02-15T22:44:57.339Z,63.63
2023-02-15T22:47:27.814Z,64.83
2023-02-15T22:49:57.405Z,66.27
2023-02-15T22:52:26.053Z,64.03
2023-02-15T22:54:54.272Z,65.97
2023-02-15T22:57:30.212Z,65.23
2023-02-15T22:59:59.408Z,61.00
2023-02-15T23:02:28.070Z,61.13
2023-02-15T23:04:57.701Z,59.33
2023-02-15T23:07:26.058Z,66.17
2023-02-15T23:09:54.308Z,65.77
2023-02-15T23:12:27.482Z,69.37
2023-02-15T23:14:56.604Z,67.87
2023-02-15T23:17:24.823Z,67.70
2023-02-15T23:19:53.052Z,70.07
2023-02-15T23:22:22.685Z,61.60
2023-02-15T23:24:53.720Z,62.33
2023-02-15T23:27:39.354Z,67.80
2023-02-15T23:30:14.124Z,60.93
2023-02-15T23:32:42.472Z,66.70
2023-02-15T23:35:15.246Z,64.40
2023-02-15T23:37:44.872Z,66.53
2023-02-15T23:40:32.776Z,66.93
2023-02-15T23:43:01.097Z,73.00
2023-02-15T23:45:29.726Z,61.27
2023-02-15T23:48:15.804Z,68.43
2023-02-15T23:50:44.083Z,68.27
2023-02-15T23:53:13.652Z,63.87
2023-02-15T23:55:44.492Z,70.80
2023-02-15T23:58:17.192Z,66.03
